Time;durP1;ratioP1;P1;durP2;ratioP2;P2;SDS_P1;SDS_P2;PMS_P1;PMS_P2;Temp;Humidity;BMP_temperature;BMP_pressure;BME280_temperature;BME280_humidity;BME280_pressure;Samples;Min_cycle;Max_cycle;Signal;HPM_P1;HPM_P2
2022/03/28 00:00:20;;;;;;;12.88;3.65;;;9.10;99.90;;;;;;4911423;29;20032;-91
2022/03/28 00:02:46;;;;;;;12.63;3.65;;;9.10;99.90;;;;;;4906015;29;20484;-90
2022/03/28 00:05:16;;;;;;;9.88;3.55;;;9.00;99.90;;;;;;4885326;29;20189;-90
2022/03/28 00:07:42;;;;;;;8.07;2.80;;;9.00;99.90;;;;;;4886255;29;20044;-90
2022/03/28 00:10:09;;;;;;;11.48;3.03;;;9.00;99.90;;;;;;4902047;29;20025;-88
2022/03/28 00:12:35;;;;;;;8.30;2.97;;;8.90;99.90;;;;;;4902534;29;20068;-90
2022/03/28 00:15:01;;;;;;;11.15;2.70;;;8.90;99.90;;;;;;4887201;29;20046;-90
2022/03/28 00:17:27;;;;;;;11.77;3.40;;;8.90;99.90;;;;;;4907254;29;20060;-91
2022/03/28 00:19:53;;;;;;;10.70;3.28;;;8.80;99.90;;;;;;4910195;29;20075;-90
2022/03/28 00:22:19;;;;;;;12.82;3.58;;;8.80;99.90;;;;;;4908947;29;20038;-88
2022/03/28 00:24:44;;;;;;;9.70;3.38;;;8.70;99.90;;;;;;4906775;29;20044;-89
2022/03/28 00:27:10;;;;;;;10.60;3.40;;;8.70;99.90;;;;;;4900180;29;20052;-91
2022/03/28 00:29:36;;;;;;;12.77;3.20;;;8.70;99.90;;;;;;4904425;29;20040;-93
2022/03/28 00:32:04;;;;;;;10.02;3.70;;;8.60;99.90;;;;;;4912745;29;20455;-87
2022/03/28 00:34:30;;;;;;;9.73;3.10;;;8.60;99.90;;;;;;4906257;29;20040;-90
2022/03/28 00:36:55;;;;;;;12.90;2.75;;;8.60;99.90;;;;;;4899713;29;20443;-91
2022/03/28 00:39:21;;;;;;;9.82;3.10;;;8.50;99.90;;;;;;4911578;29;20033;-91
2022/03/28 00:41:51;;;;;;;11.25;3.40;;;8.50;99.90;;;;;;4902004;29;20028;-88
2022/03/28 00:44:18;;;;;;;13.10;3.78;;;8.40;99.90;;;;;;4900733;29;20119;-90
2022/03/28 00:46:44;;;;;;;12.82;3.35;;;8.40;99.90;;;;;;4913036;29;20040;-91
2022/03/28 00:49:10;;;;;;;12.43;3.83;;;8.40;99.90;;;;;;4909130;29;20036;-91
2022/03/28 00:51:37;;;;;;;9.45;3.00;;;8.30;99.90;;;;;;4912267;29;20092;-90
2022/03/28 00:54:04;;;;;;;11.18;3.25;;;8.30;99.90;;;;;;4901646;29;20047;-90
2022/03/28 00:56:29;;;;;;;13.18;2.83;;;8.20;99.90;;;;;;4903116;29;20428;-88
2022/03/28 00:58:58;;;;;;;9.45;3.22;;;8.30;99.90;;;;;;4909246;29;20036;-89
2022/03/28 01:01:27;;;;;;;12.82;3.20;;;8.20;99.90;;;;;;4913013;29;20093;-89
2022/03/28 01:03:56;;;;;;;9.95;3.10;;;8.20;99.90;;;;;;4914014;29;20028;-88
2022/03/28 01:06:22;;;;;;;9.45;3.35;;;8.20;99.90;;;;;;4907730;29;20044;-92
2022/03/28 01:08:48;;;;;;;8.40;2.90;;;8.20;99.90;;;;;;4904700;29;20579;-90
2022/03/28 01:11:14;;;;;;;9.15;3.08;;;8.20;99.90;;;;;;4910432;29;20024;-89
2022/03/28 01:13:41;;;;;;;10.80;3.10;;;8.20;99.90;;;;;;4925194;29;20057;-91
2022/03/28 01:16:08;;;;;;;11.77;3.25;;;8.20;99.90;;;;;;4925102;29;20043;-90
2022/03/28 01:18:34;;;;;;;9.27;2.80;;;8.20;99.90;;;;;;4924257;29;20036;-90
2022/03/28 01:21:01;;;;;;;11.13;2.95;;;8.20;99.90;;;;;;4920180;28;20027;-87
2022/03/28 01:23:28;;;;;;;8.63;2.90;;;8.20;99.90;;;;;;4917830;29;20032;-89
2022/03/28 01:25:56;;;;;;;9.52;2.70;;;8.20;99.90;;;;;;4922547;29;20055;-89
2022/03/28 01:28:27;;;;;;;11.13;2.67;;;8.10;99.90;;;;;;4914970;29;20016;-87
2022/03/28 01:30:55;;;;;;;13.75;3.70;;;8.10;99.90;;;;;;4912537;29;20037;-92
2022/03/28 01:33:21;;;;;;;11.85;3.20;;;8.10;99.90;;;;;;4926775;29;20045;-90
2022/03/28 01:35:52;;;;;;;8.85;2.67;;;8.10;99.90;;;;;;4900840;29;20024;-89
2022/03/28 01:38:19;;;;;;;12.55;3.10;;;8.10;99.90;;;;;;4888336;29;20258;-91
2022/03/28 01:40:51;;;;;;;10.23;3.42;;;8.00;99.90;;;;;;4888068;29;20437;-90
2022/03/28 01:43:18;;;;;;;14.57;3.67;;;8.00;99.90;;;;;;4884826;29;20036;-91
2022/03/28 01:45:44;;;;;;;11.75;3.10;;;8.00;99.90;;;;;;4900890;29;20040;-90
2022/03/28 01:48:11;;;;;;;15.35;3.40;;;8.00;99.90;;;;;;4901141;29;20037;-90
2022/03/28 01:50:37;;;;;;;12.30;3.08;;;7.90;99.90;;;;;;4885144;29;20033;-89
2022/03/28 01:53:03;;;;;;;9.93;3.22;;;7.90;99.90;;;;;;4885525;29;20051;-89
2022/03/28 01:55:30;;;;;;;11.88;3.05;;;7.90;99.90;;;;;;4900438;29;20060;-89
2022/03/28 01:57:56;;;;;;;13.10;3.75;;;7.80;99.90;;;;;;4902284;29;20041;-91
2022/03/28 02:00:28;;;;;;;9.88;3.17;;;7.70;99.90;;;;;;4902483;29;20036;-92
2022/03/28 02:02:55;;;;;;;10.50;3.37;;;7.70;99.90;;;;;;4885299;29;20043;-90
2022/03/28 02:05:21;;;;;;;15.68;4.05;;;7.70;99.90;;;;;;4884176;29;20104;-91
2022/03/28 02:07:48;;;;;;;7.55;2.75;;;7.70;99.90;;;;;;4883812;29;20060;-90
2022/03/28 02:10:17;;;;;;;12.43;3.47;;;7.70;99.90;;;;;;4883972;29;20036;-92
2022/03/28 02:12:43;;;;;;;11.25;3.17;;;7.70;99.90;;;;;;4885158;29;20075;-90
2022/03/28 02:15:10;;;;;;;10.65;3.10;;;7.60;99.90;;;;;;4887267;29;20048;-92
2022/03/28 02:17:37;;;;;;;11.70;3.72;;;7.60;99.90;;;;;;4887345;29;20040;-90
2022/03/28 02:20:08;;;;;;;13.50;3.80;;;7.60;99.90;;;;;;4887766;29;20053;-90
2022/03/28 02:22:37;;;;;;;11.70;3.20;;;7.60;99.90;;;;;;4886108;29;20036;-89
2022/03/28 02:25:06;;;;;;;13.30;3.60;;;7.50;99.90;;;;;;4884224;29;20115;-91
2022/03/28 02:27:32;;;;;;;9.35;3.50;;;7.50;99.90;;;;;;4884486;29;20517;-89
2022/03/28 02:29:57;;;;;;;15.05;4.15;;;7.40;99.90;;;;;;4883903;29;20043;-89
2022/03/28 02:32:23;;;;;;;16.15;4.03;;;7.40;99.90;;;;;;4884684;29;20135;-88
2022/03/28 02:34:49;;;;;;;11.15;4.00;;;7.40;99.90;;;;;;4906993;29;20104;-89
2022/03/28 02:37:15;;;;;;;10.05;3.30;;;7.30;99.90;;;;;;4906657;29;20037;-89
2022/03/28 02:39:41;;;;;;;10.38;3.47;;;7.30;99.90;;;;;;4891089;29;20029;-87
2022/03/28 02:42:07;;;;;;;12.18;3.83;;;7.30;99.90;;;;;;4907746;29;20043;-87
2022/03/28 02:44:32;;;;;;;10.27;3.92;;;7.20;99.90;;;;;;4890765;29;20075;-87
2022/03/28 02:46:58;;;;;;;9.32;3.00;;;7.20;99.90;;;;;;4906985;29;20040;-86
2022/03/28 02:49:24;;;;;;;13.13;3.90;;;7.20;99.90;;;;;;4906491;29;20048;-88
2022/03/28 02:51:49;;;;;;;11.57;3.65;;;7.20;99.90;;;;;;4890480;29;20037;-87
2022/03/28 02:54:15;;;;;;;10.35;4.30;;;7.10;99.90;;;;;;4901897;29;20049;-89
2022/03/28 02:56:41;;;;;;;13.63;4.10;;;7.10;99.90;;;;;;4882474;29;20044;-89
2022/03/28 02:59:07;;;;;;;11.82;4.25;;;7.10;99.90;;;;;;4900227;29;20043;-87
2022/03/28 03:01:33;;;;;;;14.88;3.90;;;7.10;99.90;;;;;;4884199;29;20032;-90
2022/03/28 03:03:59;;;;;;;15.32;4.40;;;7.00;99.90;;;;;;4898897;29;20044;-90
2022/03/28 03:06:24;;;;;;;11.82;4.28;;;7.00;99.90;;;;;;4882291;29;20045;-90
2022/03/28 03:08:50;;;;;;;13.32;4.25;;;7.00;99.90;;;;;;4898613;29;20483;-88
2022/03/28 03:11:17;;;;;;;14.40;4.47;;;7.00;99.90;;;;;;4898870;29;20036;-89
2022/03/28 03:13:42;;;;;;;13.95;4.55;;;6.90;99.90;;;;;;4882376;29;20162;-90
2022/03/28 03:16:08;;;;;;;11.73;4.07;;;6.90;99.90;;;;;;4882559;29;20033;-91
2022/03/28 03:18:33;;;;;;;12.73;4.38;;;6.90;99.90;;;;;;4882388;29;20048;-90
2022/03/28 03:20:59;;;;;;;10.90;4.60;;;6.90;99.90;;;;;;4899394;29;20029;-89
2022/03/28 03:23:26;;;;;;;12.43;4.20;;;6.90;99.90;;;;;;4901731;29;20032;-90
2022/03/28 03:25:52;;;;;;;11.45;3.88;;;6.80;99.90;;;;;;4885539;29;20038;-89
2022/03/28 03:28:17;;;;;;;14.88;4.15;;;6.80;99.90;;;;;;4885703;29;20115;-89
2022/03/28 03:30:43;;;;;;;10.82;4.13;;;6.70;99.90;;;;;;4901361;29;20036;-89
2022/03/28 03:33:09;;;;;;;10.73;4.10;;;6.70;99.90;;;;;;4885863;29;20033;-91
2022/03/28 03:35:37;;;;;;;12.30;4.53;;;6.70;99.90;;;;;;4885785;29;20071;-89
2022/03/28 03:38:03;;;;;;;13.45;4.28;;;6.70;99.90;;;;;;4886020;29;20041;-89
2022/03/28 03:40:29;;;;;;;9.25;4.00;;;6.60;99.90;;;;;;4885783;29;20081;-90
2022/03/28 03:42:55;;;;;;;11.13;3.35;;;6.60;99.90;;;;;;4884553;29;20392;-91
2022/03/28 03:45:21;;;;;;;10.98;4.65;;;6.60;99.90;;;;;;4885255;29;20439;-91
2022/03/28 03:47:46;;;;;;;11.90;3.67;;;6.60;99.90;;;;;;4900926;29;20427;-89
2022/03/28 03:50:12;;;;;;;12.52;4.20;;;6.60;99.90;;;;;;4885232;29;20096;-90
2022/03/28 03:52:38;;;;;;;10.68;4.50;;;6.50;99.90;;;;;;4900883;29;20043;-90
2022/03/28 03:55:06;;;;;;;14.25;5.35;;;6.50;99.90;;;;;;4901609;29;20092;-91
2022/03/28 03:57:32;;;;;;;11.38;4.53;;;6.50;99.90;;;;;;4885109;29;20124;-89
2022/03/28 03:59:58;;;;;;;10.68;3.92;;;6.40;99.90;;;;;;4885297;29;20128;-89
2022/03/28 04:02:23;;;;;;;9.82;3.70;;;6.40;99.90;;;;;;4885016;29;20092;-90
2022/03/28 04:04:49;;;;;;;9.70;3.83;;;6.40;99.90;;;;;;4884808;29;20029;-88
2022/03/28 04:07:15;;;;;;;10.52;4.22;;;6.40;99.90;;;;;;4884969;29;20059;-90
2022/03/28 04:09:41;;;;;;;13.57;5.20;;;6.30;99.90;;;;;;4885063;29;20039;-91
2022/03/28 04:12:07;;;;;;;11.77;3.92;;;6.30;99.90;;;;;;4885049;29;20395;-89
2022/03/28 04:14:33;;;;;;;11.50;4.07;;;6.20;99.90;;;;;;4885036;29;20041;-90
2022/03/28 04:16:59;;;;;;;12.07;4.00;;;6.10;99.90;;;;;;4885602;29;20498;-91
2022/03/28 04:19:25;;;;;;;11.30;4.03;;;6.10;99.90;;;;;;4884905;29;20033;-90
2022/03/28 04:21:50;;;;;;;16.10;4.88;;;6.10;99.90;;;;;;4884548;29;20037;-89
2022/03/28 04:24:16;;;;;;;10.32;4.32;;;6.10;99.90;;;;;;4900999;29;20037;-89
2022/03/28 04:26:42;;;;;;;13.20;4.05;;;6.10;99.90;;;;;;4884642;29;20035;-89
2022/03/28 04:29:07;;;;;;;10.77;4.13;;;6.10;99.90;;;;;;4884720;29;20084;-89
2022/03/28 04:31:33;;;;;;;10.57;4.20;;;6.10;99.90;;;;;;4885128;29;20036;-89
2022/03/28 04:33:59;;;;;;;10.27;3.67;;;6.10;99.90;;;;;;4883306;29;20080;-88
2022/03/28 04:36:25;;;;;;;13.13;4.88;;;6.00;99.90;;;;;;4881867;29;20036;-88
2022/03/28 04:38:51;;;;;;;13.95;4.38;;;6.00;99.90;;;;;;4882246;29;20064;-89
2022/03/28 04:41:16;;;;;;;12.00;4.07;;;5.90;99.90;;;;;;4882186;29;20082;-89
2022/03/28 04:43:42;;;;;;;11.43;4.70;;;5.80;99.90;;;;;;4883629;29;20039;-88
2022/03/28 04:46:08;;;;;;;12.38;4.95;;;5.80;99.90;;;;;;4882538;29;20040;-90
2022/03/28 04:48:33;;;;;;;11.63;4.65;;;5.80;99.90;;;;;;4887480;29;20127;-88
2022/03/28 04:50:59;;;;;;;11.52;4.60;;;5.80;99.90;;;;;;4897004;29;20502;-88
2022/03/28 04:53:25;;;;;;;10.65;4.75;;;5.80;99.90;;;;;;4914453;29;20037;-88
2022/03/28 04:55:50;;;;;;;9.13;3.53;;;5.80;99.90;;;;;;4898750;29;20069;-88
2022/03/28 04:58:16;;;;;;;11.00;4.95;;;5.80;99.90;;;;;;4897137;29;20044;-89
2022/03/28 05:00:43;;;;;;;11.90;5.40;;;5.80;99.90;;;;;;4897752;29;20029;-91
2022/03/28 05:03:08;;;;;;;9.25;4.45;;;5.80;99.90;;;;;;4897526;29;20483;-89
2022/03/28 05:05:35;;;;;;;10.05;4.57;;;5.80;99.90;;;;;;4897154;29;20100;-87
2022/03/28 05:08:01;;;;;;;8.63;3.70;;;5.80;99.90;;;;;;4896878;29;20092;-91
2022/03/28 05:10:26;;;;;;;9.15;4.20;;;5.80;99.90;;;;;;4886359;29;20366;-91
2022/03/28 05:12:52;;;;;;;9.75;5.10;;;5.80;99.90;;;;;;4895664;29;20033;-89
2022/03/28 05:15:18;;;;;;;10.02;4.38;;;5.80;99.90;;;;;;4879395;29;20055;-89
2022/03/28 05:17:43;;;;;;;7.75;3.88;;;5.80;99.90;;;;;;4879645;29;20627;-88
2022/03/28 05:20:09;;;;;;;7.65;3.65;;;5.90;99.90;;;;;;4879879;29;20056;-88
2022/03/28 05:22:38;;;;;;;10.40;4.18;;;5.80;99.90;;;;;;4898878;29;20036;-88
2022/03/28 05:25:05;;;;;;;9.73;4.43;;;5.80;99.90;;;;;;4899529;29;20045;-88
2022/03/28 05:27:31;;;;;;;9.63;4.22;;;5.80;99.90;;;;;;4900372;29;20029;-88
2022/03/28 05:29:58;;;;;;;12.50;4.38;;;5.80;99.90;;;;;;4884756;29;20034;-88
2022/03/28 05:32:23;;;;;;;9.20;4.03;;;5.70;99.90;;;;;;4900875;29;20044;-88
2022/03/28 05:34:49;;;;;;;9.93;3.97;;;5.70;99.90;;;;;;4904653;29;20120;-87
2022/03/28 05:37:16;;;;;;;11.15;4.75;;;5.60;99.90;;;;;;4892241;29;20021;-87
2022/03/28 05:39:44;;;;;;;8.77;4.22;;;5.60;99.90;;;;;;4886328;29;20083;-87
2022/03/28 05:42:10;;;;;;;10.77;4.32;;;5.60;99.90;;;;;;4900986;29;20029;-88
2022/03/28 05:44:41;;;;;;;13.05;5.18;;;5.60;99.90;;;;;;4882921;29;20029;-87
2022/03/28 05:47:07;;;;;;;7.55;4.28;;;5.60;99.90;;;;;;4898863;29;20040;-87
2022/03/28 05:49:32;;;;;;;13.20;4.80;;;5.60;99.90;;;;;;4883178;29;20068;-89
2022/03/28 05:51:58;;;;;;;11.13;4.72;;;5.50;99.90;;;;;;4883789;29;20044;-87
2022/03/28 05:54:24;;;;;;;10.65;4.55;;;5.50;99.90;;;;;;4883029;29;20465;-88
2022/03/28 05:56:49;;;;;;;12.05;5.03;;;5.60;99.90;;;;;;4883494;29;20132;-87
2022/03/28 05:59:16;;;;;;;17.33;5.20;;;5.50;99.90;;;;;;4883220;29;20063;-87
2022/03/28 06:01:41;;;;;;;12.93;4.35;;;5.50;99.90;;;;;;4883324;29;20203;-86
2022/03/28 06:04:07;;;;;;;12.70;5.50;;;5.60;99.90;;;;;;4886129;29;20052;-88
2022/03/28 06:06:34;;;;;;;13.23;4.93;;;5.60;99.90;;;;;;4883172;29;20051;-88
2022/03/28 06:09:00;;;;;;;13.05;5.40;;;5.60;99.90;;;;;;4884784;29;20551;-87
2022/03/28 06:11:26;;;;;;;16.23;6.60;;;5.60;99.90;;;;;;4889364;29;20127;-88
2022/03/28 06:13:53;;;;;;;15.02;6.05;;;5.60;99.90;;;;;;4882977;29;20542;-88
2022/03/28 06:16:19;;;;;;;10.70;5.30;;;5.50;99.90;;;;;;4898081;29;20075;-88
2022/03/28 06:18:45;;;;;;;11.70;5.65;;;5.50;99.90;;;;;;4882866;29;20064;-88
2022/03/28 06:21:11;;;;;;;13.65;5.57;;;5.60;99.90;;;;;;4900774;29;20060;-88
2022/03/28 06:23:36;;;;;;;12.95;5.93;;;5.60;99.90;;;;;;4897175;29;20043;-88
2022/03/28 06:26:03;;;;;;;13.00;7.15;;;5.70;99.90;;;;;;4901718;29;20439;-88
2022/03/28 06:28:29;;;;;;;14.13;6.63;;;5.70;99.90;;;;;;4898469;29;20487;-89
2022/03/28 06:30:55;;;;;;;12.82;6.35;;;5.70;99.90;;;;;;4897077;29;20043;-88
2022/03/28 06:33:21;;;;;;;12.60;5.63;;;5.70;99.90;;;;;;4907536;29;20234;-88
2022/03/28 06:35:47;;;;;;;12.38;5.82;;;5.70;99.90;;;;;;4890587;29;20028;-89
2022/03/28 06:38:13;;;;;;;12.00;5.78;;;5.80;99.90;;;;;;4908397;29;20088;-88
2022/03/28 06:40:39;;;;;;;7.85;4.95;;;5.80;99.90;;;;;;4901425;29;20073;-90
2022/03/28 06:43:05;;;;;;;9.25;5.07;;;5.90;99.90;;;;;;4895678;29;20051;-89
2022/03/28 06:45:33;;;;;;;12.70;5.65;;;6.00;99.90;;;;;;4912125;29;20413;-91
2022/03/28 06:47:59;;;;;;;9.60;5.20;;;6.00;99.90;;;;;;4911098;29;20041;-88
2022/03/28 06:50:27;;;;;;;10.57;5.10;;;6.00;99.90;;;;;;4900332;29;20128;-90
2022/03/28 06:52:53;;;;;;;10.80;5.45;;;6.10;99.90;;;;;;4898648;29;20041;-86
2022/03/28 06:55:19;;;;;;;10.18;5.45;;;6.20;99.90;;;;;;4908767;29;20029;-86
2022/03/28 06:57:45;;;;;;;9.65;5.13;;;6.30;99.90;;;;;;4909727;29;20072;-88
2022/03/28 07:00:12;;;;;;;10.43;5.63;;;6.30;99.90;;;;;;4897730;29;20067;-90
2022/03/28 07:02:39;;;;;;;11.23;6.03;;;6.40;99.90;;;;;;4919914;29;20368;-89
2022/03/28 07:05:06;;;;;;;10.13;5.80;;;6.50;99.90;;;;;;4919813;29;20040;-87
2022/03/28 07:07:48;;;;;;;10.48;5.97;;;6.50;99.90;;;;;;4917669;29;20049;-88
2022/03/28 07:10:17;;;;;;;13.60;6.03;;;6.60;99.90;;;;;;4916681;29;20374;-88
2022/03/28 07:12:43;;;;;;;12.15;5.90;;;6.70;99.90;;;;;;4909490;29;20032;-86
2022/03/28 07:15:11;;;;;;;10.90;5.95;;;6.70;99.90;;;;;;4909738;29;20036;-87
2022/03/28 07:17:48;;;;;;;12.70;6.97;;;6.80;99.90;;;;;;4884597;29;20168;-87
2022/03/28 07:20:14;;;;;;;10.73;6.78;;;6.90;99.90;;;;;;4897532;29;20056;-88
2022/03/28 07:22:40;;;;;;;12.23;7.45;;;6.90;99.90;;;;;;4926659;29;20024;-87
2022/03/28 07:25:07;;;;;;;14.25;7.63;;;7.00;99.90;;;;;;4924896;29;20087;-88
2022/03/28 07:27:40;;;;;;;11.93;7.30;;;7.10;99.90;;;;;;4906733;29;20028;-88
2022/03/28 07:30:08;;;;;;;13.18;7.45;;;7.10;99.90;;;;;;4913519;29;20032;-89
2022/03/28 07:32:35;;;;;;;12.13;6.95;;;7.20;99.90;;;;;;4899519;29;20117;-90
2022/03/28 07:35:01;;;;;;;11.38;6.90;;;7.20;99.90;;;;;;4897957;29;20132;-88
2022/03/28 07:37:27;;;;;;;11.48;6.90;;;7.30;99.90;;;;;;4882340;29;20029;-87
2022/03/28 07:39:52;;;;;;;14.45;8.77;;;7.40;99.90;;;;;;4883097;29;20039;-87
2022/03/28 07:42:18;;;;;;;11.07;7.25;;;7.40;99.90;;;;;;4893257;29;20045;-88
2022/03/28 07:44:44;;;;;;;10.75;6.93;;;7.50;99.90;;;;;;4891349;29;20051;-89
2022/03/28 07:47:11;;;;;;;11.93;7.35;;;7.50;99.90;;;;;;4886557;29;20037;-89
2022/03/28 07:49:38;;;;;;;13.15;7.10;;;7.50;99.90;;;;;;4886155;29;20539;-86
2022/03/28 07:52:06;;;;;;;12.25;7.45;;;7.50;99.90;;;;;;4903205;29;20033;-88
2022/03/28 07:54:32;;;;;;;11.60;7.13;;;7.50;99.90;;;;;;4884349;29;20037;-87
2022/03/28 07:56:58;;;;;;;12.23;7.70;;;7.60;99.90;;;;;;4898962;29;20096;-89
2022/03/28 07:59:24;;;;;;;13.00;7.03;;;7.70;99.90;;;;;;4902209;29;20070;-86
2022/03/28 08:01:52;;;;;;;11.82;7.30;;;7.70;99.90;;;;;;4885088;29;20044;-87
2022/03/28 08:04:18;;;;;;;14.35;7.82;;;7.80;99.90;;;;;;4898754;29;20036;-87
2022/03/28 08:06:44;;;;;;;14.20;8.38;;;8.00;99.90;;;;;;4898347;29;20072;-87
2022/03/28 08:09:09;;;;;;;16.20;9.68;;;8.00;99.90;;;;;;4884841;29;20074;-87
2022/03/28 08:11:35;;;;;;;18.13;12.55;;;8.10;99.90;;;;;;4884788;29;20041;-86
2022/03/28 08:14:03;;;;;;;18.40;10.85;;;8.20;99.90;;;;;;4884646;29;20036;-87
2022/03/28 08:16:29;;;;;;;18.60;10.98;;;8.20;99.90;;;;;;4901858;29;20039;-88
2022/03/28 08:18:55;;;;;;;17.10;10.60;;;8.40;99.90;;;;;;4884475;29;20067;-86
2022/03/28 08:21:21;;;;;;;15.18;9.75;;;8.40;99.90;;;;;;4884830;29;20460;-87
2022/03/28 08:23:46;;;;;;;14.85;9.45;;;8.50;99.90;;;;;;4884498;29;20044;-87
2022/03/28 08:26:12;;;;;;;15.35;8.73;;;8.60;99.90;;;;;;4884458;29;20041;-87
2022/03/28 08:28:39;;;;;;;12.43;8.23;;;8.60;99.90;;;;;;4884925;29;20029;-89
2022/03/28 08:31:05;;;;;;;14.05;8.93;;;8.70;99.90;;;;;;4885336;29;20033;-89
2022/03/28 08:33:31;;;;;;;17.10;10.90;;;8.70;99.90;;;;;;4884441;29;20080;-86
2022/03/28 08:35:56;;;;;;;13.85;9.88;;;8.80;99.90;;;;;;4901322;29;20063;-86
2022/03/28 08:38:23;;;;;;;13.68;8.98;;;8.80;99.90;;;;;;4884514;29;20036;-86
2022/03/28 08:40:49;;;;;;;19.92;13.77;;;8.90;99.90;;;;;;4884505;29;20064;-87
2022/03/28 08:43:19;;;;;;;17.08;12.57;;;9.00;99.90;;;;;;4901024;29;20032;-86
2022/03/28 08:45:48;;;;;;;18.52;10.48;;;9.00;99.90;;;;;;4901401;29;20107;-86
2022/03/28 08:48:14;;;;;;;15.85;10.52;;;9.10;99.90;;;;;;4884570;29;20029;-86
2022/03/28 08:50:42;;;;;;;14.23;9.38;;;9.20;99.90;;;;;;4889763;29;20039;-85
2022/03/28 08:53:08;;;;;;;12.70;8.82;;;9.30;99.90;;;;;;4914791;29;20048;-86
2022/03/28 08:55:34;;;;;;;19.08;9.13;;;9.40;99.90;;;;;;4891696;29;20047;-85
2022/03/28 08:57:59;;;;;;;18.58;11.77;;;9.50;99.90;;;;;;4907901;29;20127;-88
2022/03/28 09:00:25;;;;;;;24.23;14.02;;;9.60;99.90;;;;;;4904538;29;20100;-88
2022/03/28 09:02:55;;;;;;;24.90;15.80;;;9.70;99.90;;;;;;4920221;29;20087;-87
2022/03/28 09:05:29;;;;;;;22.38;14.43;;;9.70;99.90;;;;;;4921280;29;20048;-86
2022/03/28 09:07:57;;;;;;;20.23;14.07;;;9.80;99.90;;;;;;4932236;29;20039;-85
2022/03/28 09:10:24;;;;;;;17.20;11.90;;;9.80;99.90;;;;;;4918112;29;20028;-87
2022/03/28 09:12:59;;;;;;;15.75;10.48;;;9.90;99.90;;;;;;4938885;29;20036;-86
2022/03/28 09:15:26;;;;;;;14.98;9.68;;;10.10;99.90;;;;;;4922611;29;20366;-86
2022/03/28 09:17:56;;;;;;;14.20;9.85;;;10.30;99.90;;;;;;4916494;29;20121;-86
2022/03/28 09:20:24;;;;;;;14.70;9.20;;;10.40;99.90;;;;;;4916514;29;20040;-84
2022/03/28 09:22:50;;;;;;;15.10;9.77;;;10.40;99.90;;;;;;4917004;29;20036;-86
2022/03/28 09:25:18;;;;;;;12.15;8.82;;;10.50;99.90;;;;;;4936964;29;20040;-85
2022/03/28 09:27:49;;;;;;;14.05;9.15;;;10.60;99.90;;;;;;4921304;29;20027;-87
2022/03/28 09:30:19;;;;;;;11.65;8.43;;;10.70;99.90;;;;;;4924764;29;20109;-89
2022/03/28 09:32:48;;;;;;;13.10;8.13;;;10.90;99.90;;;;;;4925465;28;20020;-87
2022/03/28 09:35:22;;;;;;;12.75;8.43;;;11.00;99.90;;;;;;4925712;29;20068;-87
2022/03/28 09:37:58;;;;;;;12.95;8.40;;;11.20;99.90;;;;;;4925398;28;20028;-88
2022/03/28 09:40:32;;;;;;;12.95;8.27;;;11.30;99.90;;;;;;4925582;28;20047;-89
2022/03/28 09:42:58;;;;;;;;;;;11.50;99.90;;;;;;4925012;28;20105;-87
2022/03/28 09:45:29;;;;;;;13.70;9.00;;;11.60;99.90;;;;;;4924844;28;19907;-90
2022/03/28 09:48:03;;;;;;;19.25;12.13;;;11.80;99.90;;;;;;4925030;29;20032;-87
2022/03/28 09:50:31;;;;;;;15.32;10.85;;;12.70;99.90;;;;;;4941801;28;20045;-88
2022/03/28 09:53:13;;;;;;;16.55;11.50;;;14.10;99.90;;;;;;4922394;28;20033;-86
2022/03/28 09:56:09;;;;;;;19.95;13.65;;;15.70;99.90;;;;;;4932488;29;20059;-91
2022/03/28 09:58:39;;;;;;;17.23;12.85;;;17.00;99.90;;;;;;4917902;29;20040;-90
2022/03/28 10:01:13;;;;;;;18.73;13.75;;;17.80;99.90;;;;;;4904511;29;20702;-91
2022/03/28 10:03:39;;;;;;;20.85;13.02;;;18.40;99.90;;;;;;4915332;29;20039;-87
2022/03/28 10:06:06;;;;;;;16.52;12.35;;;18.90;99.90;;;;;;4903756;29;20060;-89
2022/03/28 10:08:33;;;;;;;17.80;12.38;;;19.30;99.90;;;;;;4901977;29;20029;-91
2022/03/28 10:11:00;;;;;;;13.77;10.10;;;19.70;98.70;;;;;;4903686;29;20051;-90
2022/03/28 10:13:26;;;;;;;13.68;8.77;;;20.00;98.90;;;;;;4897097;29;20141;-91
2022/03/28 10:15:53;;;;;;;13.38;10.20;;;20.60;99.00;;;;;;4913900;29;20041;-92
2022/03/28 10:18:19;;;;;;;17.05;9.63;;;21.10;98.10;;;;;;4918954;29;20040;-90
2022/03/28 10:20:53;;;;;;;10.38;7.75;;;21.40;97.60;;;;;;4897560;29;20029;-90
2022/03/28 10:23:19;;;;;;;;;;;21.90;97.30;;;;;;4896763;29;20033;-88
2022/03/28 10:25:45;;;;;;;10.60;7.05;;;22.20;96.80;;;;;;4910122;29;19955;-87
2022/03/28 10:28:11;;;;;;;13.13;9.30;;;22.60;96.80;;;;;;4896684;29;20075;-87
2022/03/28 10:30:36;;;;;;;11.18;8.35;;;22.80;95.40;;;;;;4881703;29;20456;-87
2022/03/28 10:33:17;;;;;;;10.98;7.63;;;23.10;94.80;;;;;;4888800;29;20045;-87
2022/03/28 10:35:57;;;;;;;8.02;6.18;;;23.60;94.40;;;;;;4896887;29;20048;-87
2022/03/28 10:38:23;;;;;;;11.65;7.70;;;23.70;93.90;;;;;;4900050;29;20033;-87
2022/03/28 10:41:00;;;;;;;9.73;8.02;;;23.90;93.10;;;;;;4887758;29;20039;-89
2022/03/28 10:43:29;;;;;;;9.68;6.93;;;24.10;92.60;;;;;;4905918;29;20124;-91
2022/03/28 10:46:01;;;;;;;11.05;7.45;;;24.30;92.10;;;;;;4908328;29;20112;-90
2022/03/28 10:48:59;;;;;;;10.60;6.47;;;24.50;91.60;;;;;;4907167;29;20044;-90
2022/03/28 10:51:31;;;;;;;9.52;7.45;;;24.80;90.30;;;;;;4908856;29;20080;-89
2022/03/28 10:54:06;;;;;;;11.07;8.20;;;24.70;90.10;;;;;;4902566;29;20067;-89
2022/03/28 10:56:39;;;;;;;9.75;7.72;;;24.80;89.80;;;;;;4899478;29;20120;-88
2022/03/28 10:59:07;;;;;;;7.35;6.00;;;24.80;88.20;;;;;;4882515;29;20041;-90
2022/03/28 11:01:44;;;;;;;9.02;6.45;;;24.90;88.90;;;;;;4887606;29;20032;-89
2022/03/28 11:04:15;;;;;;;9.07;7.10;;;25.20;87.60;;;;;;4919656;29;20479;-90
2022/03/28 11:06:59;;;;;;;10.57;7.10;;;25.20;86.70;;;;;;4901866;29;20055;-90
2022/03/28 11:09:42;;;;;;;11.25;6.80;;;25.30;85.50;;;;;;4908897;29;20052;-88
2022/03/28 11:12:18;;;;;;;9.15;6.35;;;25.50;85.60;;;;;;4899007;29;20073;-89
2022/03/28 11:14:43;;;;;;;10.48;7.78;;;25.80;84.90;;;;;;4899824;29;20055;-89
2022/03/28 11:17:24;;;;;;;8.40;6.63;;;26.10;84.00;;;;;;4891816;29;20123;-88
2022/03/28 11:20:08;;;;;;;8.57;6.28;;;26.20;82.90;;;;;;4918421;29;20103;-90
2022/03/28 11:22:45;;;;;;;10.15;7.20;;;26.40;82.50;;;;;;4902399;29;20546;-89
2022/03/28 11:25:31;;;;;;;13.02;8.57;;;26.60;81.20;;;;;;4900763;29;20139;-87
2022/03/28 11:28:21;;;;;;;8.60;6.15;;;26.60;79.80;;;;;;4903294;29;20024;-89
2022/03/28 11:31:15;;;;;;;10.60;6.90;;;26.60;80.40;;;;;;4904190;29;20028;-90
2022/03/28 11:33:46;;;;;;;7.50;5.43;;;26.80;80.30;;;;;;4905931;29;20045;-89
2022/03/28 11:36:18;;;;;;;7.80;5.78;;;26.90;79.90;;;;;;4883435;29;20058;-89
2022/03/28 11:38:49;;;;;;;7.50;5.45;;;27.10;79.00;;;;;;4918205;29;20040;-86
2022/03/28 11:41:17;;;;;;;11.05;6.82;;;27.10;78.70;;;;;;4909900;29;20459;-88
2022/03/28 11:43:45;;;;;;;9.25;7.05;;;27.10;78.40;;;;;;4902417;29;20039;-88
2022/03/28 11:46:14;;;;;;;7.25;6.20;;;27.10;78.20;;;;;;4903224;29;20131;-88
2022/03/28 11:48:54;;;;;;;8.88;6.22;;;27.30;77.60;;;;;;4923597;29;20084;-88
2022/03/28 11:51:19;;;;;;;9.43;6.25;;;27.40;76.70;;;;;;4924243;29;20489;-88
2022/03/28 11:53:45;;;;;;;11.55;8.18;;;27.40;77.00;;;;;;4903942;29;20044;-88
2022/03/28 11:56:20;;;;;;;13.18;10.15;;;27.40;76.40;;;;;;4886320;29;20112;-88
2022/03/28 11:58:46;;;;;;;12.52;8.43;;;27.20;74.40;;;;;;4901105;29;20552;-89
2022/03/28 12:01:12;;;;;;;10.75;7.57;;;26.90;74.90;;;;;;4887277;29;20036;-88
2022/03/28 12:03:49;;;;;;;10.82;8.35;;;26.70;75.90;;;;;;4907505;29;20035;-89
2022/03/28 12:06:35;;;;;;;10.80;9.40;;;26.70;75.90;;;;;;4886539;29;20577;-90
2022/03/28 12:09:01;;;;;;;11.70;8.75;;;26.70;76.10;;;;;;4922622;29;20040;-89
2022/03/28 12:11:27;;;;;;;11.23;8.40;;;26.60;76.40;;;;;;4892103;29;20491;-88
2022/03/28 12:13:54;;;;;;;8.52;6.57;;;26.60;76.10;;;;;;4895565;29;20048;-88
2022/03/28 12:16:21;;;;;;;9.48;7.00;;;26.80;76.20;;;;;;4886055;29;20132;-91
2022/03/28 12:18:53;;;;;;;11.57;8.50;;;26.90;75.60;;;;;;4884945;29;20504;-90
2022/03/28 12:21:20;;;;;;;14.10;9.15;;;26.90;75.90;;;;;;4885651;29;20061;-91
2022/03/28 12:23:46;;;;;;;11.52;8.00;;;26.70;75.10;;;;;;4894807;29;20119;-90
2022/03/28 12:26:13;;;;;;;9.80;6.97;;;26.50;76.20;;;;;;4902477;29;20498;-91
2022/03/28 12:28:43;;;;;;;8.20;6.00;;;26.60;76.40;;;;;;4910945;29;20051;-91
2022/03/28 12:31:09;;;;;;;9.45;7.55;;;26.80;76.90;;;;;;4895771;23;20080;-90
2022/03/28 12:33:40;;;;;;;8.95;6.72;;;26.80;76.50;;;;;;4895115;29;20419;-89
2022/03/28 12:36:12;;;;;;;8.87;6.23;;;26.90;76.60;;;;;;4904145;29;20519;-91
2022/03/28 12:38:39;;;;;;;10.85;7.80;;;27.10;76.80;;;;;;4888109;29;20111;-91
2022/03/28 12:41:13;;;;;;;8.90;7.10;;;27.20;75.90;;;;;;4883935;29;20132;-92
2022/03/28 12:43:45;;;;;;;9.23;6.93;;;27.40;74.80;;;;;;4885382;29;20030;-92
2022/03/28 12:46:13;;;;;;;10.93;6.13;;;27.50;74.10;;;;;;4882169;29;20102;-92
2022/03/28 12:48:49;;;;;;;7.90;5.72;;;27.60;73.50;;;;;;4882214;29;20025;-92